Time;durP1;ratioP1;P1;durP2;ratioP2;P2;SDS_P1;SDS_P2;PMS_P1;PMS_P2;Temp;Humidity;BMP_temperature;BMP_pressure;BME280_temperature;BME280_humidity;BME280_pressure;Samples;Min_cycle;Max_cycle;Signal;HPM_P1;HPM_P2
2022/06/10 00:00:27;;;;;;;4.32;0.93;;;22.50;65.30;;;;;;5052356;28;20025;-48
2022/06/10 00:02:54;;;;;;;1.90;0.70;;;;;;;;;;5051901;28;20045;-47
2022/06/10 00:05:23;;;;;;;2.03;0.70;;;22.70;65.50;;;;;;5052105;28;20047;-47
2022/06/10 00:07:50;;;;;;;1.50;0.60;;;22.40;65.40;;;;;;5051995;28;20021;-48
2022/06/10 00:10:19;;;;;;;2.20;0.60;;;22.50;65.50;;;;;;5052322;28;20029;-47
2022/06/10 00:12:46;;;;;;;3.40;0.95;;;;;;;;;;5052013;28;20079;-46
2022/06/10 00:15:12;;;;;;;2.45;0.80;;;;;;;;;;5051967;28;20488;-47
2022/06/10 00:17:38;;;;;;;2.28;0.68;;;;;;;;;;5051978;28;20040;-47
2022/06/10 00:20:05;;;;;;;3.28;0.70;;;22.40;65.40;;;;;;5052005;28;20029;-49
2022/06/10 00:22:31;;;;;;;2.22;0.82;;;;;;;;;;5051915;28;20033;-49
2022/06/10 00:24:58;;;;;;;2.22;0.50;;;;;;;;;;5052189;28;20028;-49
2022/06/10 00:27:24;;;;;;;1.67;0.43;;;;;;;;;;5051877;28;20384;-48
2022/06/10 00:29:50;;;;;;;4.80;0.98;;;;;;;;;;5051862;28;20029;-48
2022/06/10 00:32:17;;;;;;;2.58;0.80;;;22.40;64.60;;;;;;5051851;28;20033;-48
2022/06/10 00:34:43;;;;;;;2.13;0.50;;;;;;;;;;5051599;28;20531;-47
2022/06/10 00:37:09;;;;;;;2.35;0.80;;;;;;;;;;5051797;28;20110;-49
2022/06/10 00:39:35;;;;;;;3.10;0.90;;;;;;;;;;5051843;28;20025;-48
2022/06/10 00:42:03;;;;;;;2.53;0.90;;;22.40;66.30;;;;;;5051743;28;20063;-48
2022/06/10 00:44:32;;;;;;;2.75;0.95;;;22.50;60.80;;;;;;5051951;28;20021;-48
2022/06/10 00:46:58;;;;;;;3.08;0.77;;;;;;;;;;5051701;28;20048;-48
2022/06/10 00:49:24;;;;;;;4.10;1.00;;;;;;;;;;5051639;28;20096;-48
2022/06/10 00:51:55;;;;;;;1.25;0.50;;;22.40;60.80;;;;;;5051574;28;20036;-49
2022/06/10 00:54:37;;;;;;;2.65;1.15;;;22.40;60.80;;;;;;5053628;28;20055;-48
2022/06/10 00:57:03;;;;;;;3.40;0.57;;;;;;;;;;5055430;28;20037;-48
2022/06/10 00:59:34;;;;;;;1.65;0.50;;;22.30;66.20;;;;;;5055473;28;20419;-49
2022/06/10 01:02:08;;;;;;;2.92;0.80;;;22.40;66.20;;;;;;5055473;28;20568;-49
2022/06/10 01:04:34;;;;;;;2.95;0.77;;;;;;;;;;5055148;28;20467;-48
2022/06/10 01:07:00;;;;;;;1.83;0.60;;;;;;;;;;5055194;28;20029;-47
2022/06/10 01:09:28;;;;;;;2.30;0.88;;;22.30;66.20;;;;;;5055224;28;20176;-48
2022/06/10 01:12:21;;;;;;;2.22;0.50;;;22.30;60.80;;;;;;5055043;28;20059;-49
2022/06/10 01:14:55;;;;;;;1.85;0.73;;;22.30;60.80;;;;;;5055036;28;20377;-48
2022/06/10 01:17:21;;;;;;;1.45;0.70;;;;;;;;;;5055161;28;20116;-49
2022/06/10 01:20:15;;;;;;;2.08;1.05;;;22.30;60.70;;;;;;5055017;28;20488;-48
2022/06/10 01:23:11;;;;;;;2.13;0.85;;;22.40;60.90;;;;;;5054933;28;20049;-48
2022/06/10 01:25:58;;;;;;;3.15;0.65;;;22.30;60.60;;;;;;5055140;28;20110;-52
2022/06/10 01:28:47;;;;;;;1.17;0.52;;;22.30;60.80;;;;;;5054858;28;20025;-49
2022/06/10 01:31:23;;;;;;;1.77;0.77;;;22.30;66.50;;;;;;5054788;28;20115;-49
2022/06/10 01:34:01;;;;;;;3.72;0.75;;;22.30;60.80;;;;;;5054721;28;20032;-49
2022/06/10 01:36:52;;;;;;;3.17;0.80;;;22.30;60.80;;;;;;5054739;28;20069;-48
2022/06/10 01:39:38;;;;;;;2.10;0.60;;;22.30;60.90;;;;;;5054697;28;20052;-48
2022/06/10 01:42:04;;;;;;;1.35;0.60;;;;;;;;;;5054555;28;20024;-47
2022/06/10 01:44:48;;;;;;;0.85;0.60;;;22.10;60.90;;;;;;5054507;28;20456;-49
2022/06/10 01:47:25;;;;;;;3.47;0.88;;;22.30;60.90;;;;;;5054516;28;20079;-48
2022/06/10 01:49:53;;;;;;;2.10;0.65;;;22.30;61.00;;;;;;5054464;28;20440;-48
2022/06/10 01:52:28;;;;;;;3.35;0.60;;;22.20;61.00;;;;;;5054689;28;20384;-48
2022/06/10 01:55:08;;;;;;;1.83;0.98;;;22.30;61.10;;;;;;5054318;28;20041;-47
2022/06/10 01:57:34;;;;;;;2.25;0.57;;;;;;;;;;5054532;28;20096;-48
2022/06/10 02:00:07;;;;;;;2.15;0.68;;;22.30;66.90;;;;;;5054224;28;20064;-49
2022/06/10 02:02:37;;;;;;;2.72;0.68;;;22.20;67.00;;;;;;5053820;28;20492;-48
2022/06/10 02:05:10;;;;;;;2.58;0.95;;;22.30;67.00;;;;;;5053955;28;20036;-48
2022/06/10 02:07:42;;;;;;;3.38;0.88;;;22.30;67.10;;;;;;5054105;28;20075;-48
2022/06/10 02:10:28;;;;;;;2.10;0.60;;;22.20;61.50;;;;;;5054095;28;20040;-49
2022/06/10 02:13:00;;;;;;;1.23;0.55;;;22.30;67.10;;;;;;5054055;28;20025;-47
2022/06/10 02:15:43;;;;;;;3.10;0.82;;;22.20;67.00;;;;;;5053861;28;20044;-47
2022/06/10 02:18:16;;;;;;;2.17;0.70;;;22.30;61.40;;;;;;5053886;28;20029;-47
2022/06/10 02:20:47;;;;;;;4.10;1.15;;;22.20;67.00;;;;;;5053851;28;20073;-47
2022/06/10 02:23:16;;;;;;;2.75;0.77;;;22.20;67.20;;;;;;5053802;28;20021;-46
2022/06/10 02:25:46;;;;;;;2.53;0.73;;;22.20;67.00;;;;;;5053769;28;20365;-47
2022/06/10 02:28:18;;;;;;;1.88;0.65;;;22.20;67.10;;;;;;5053780;28;20032;-47
2022/06/10 02:30:55;;;;;;;1.55;0.70;;;22.30;61.30;;;;;;5053749;28;20040;-47
2022/06/10 02:33:21;;;;;;;1.63;0.82;;;;;;;;;;5053632;28;20383;-47
2022/06/10 02:36:04;;;;;;;1.50;0.50;;;22.20;61.30;;;;;;5053508;28;20037;-48
2022/06/10 02:38:45;;;;;;;2.08;0.88;;;22.30;61.30;;;;;;5053486;28;20025;-48
2022/06/10 02:41:49;;;;;;;2.15;0.70;;;22.10;61.20;;;;;;5053467;28;20017;-47
2022/06/10 02:44:36;;;;;;;4.07;1.15;;;22.20;61.40;;;;;;5053344;28;20437;-47
2022/06/10 02:47:02;;;;;;;1.70;0.75;;;;;;;;;;5053377;28;20036;-48
2022/06/10 02:49:29;;;;;;;2.20;0.70;;;;;;;;;;5053575;28;20032;-47
2022/06/10 02:51:55;;;;;;;1.52;0.63;;;;;;;;;;5053200;28;20037;-47
2022/06/10 02:54:30;;;;;;;3.35;0.80;;;22.20;67.10;;;;;;5053039;28;20120;-47
2022/06/10 02:56:56;;;;;;;1.95;0.60;;;;;;;;;;5053387;28;20029;-47
2022/06/10 03:02:20;;;;;;;2.17;0.73;;;22.20;61.40;;;;;;5053280;28;20093;-46
2022/06/10 03:05:01;;;;;;;2.58;0.65;;;22.20;61.50;;;;;;5053352;28;20403;-46
2022/06/10 03:07:56;;;;;;;1.88;0.77;;;22.20;67.10;;;;;;5053096;28;20082;-46
2022/06/10 03:10:42;;;;;;;1.17;0.60;;;22.20;61.40;;;;;;5052950;28;20029;-47
2022/06/10 03:13:09;;;;;;;2.95;0.63;;;;;;;;;;5035076;28;20480;-47
2022/06/10 03:15:53;;;;;;;4.47;0.85;;;22.10;61.50;;;;;;5052733;28;20438;-47
2022/06/10 03:18:30;;;;;;;1.77;0.50;;;22.20;61.50;;;;;;5052521;28;20087;-47
2022/06/10 03:21:08;;;;;;;1.55;0.73;;;22.20;61.40;;;;;;5052717;28;20518;-47
2022/06/10 03:23:45;;;;;;;3.53;0.93;;;22.20;61.30;;;;;;5052699;28;20515;-48
2022/06/10 03:26:29;;;;;;;1.05;0.65;;;22.10;61.40;;;;;;5052978;28;20116;-48
2022/06/10 03:29:16;;;;;;;1.48;0.70;;;22.20;61.50;;;;;;5052899;28;20378;-47
2022/06/10 03:31:50;;;;;;;2.38;0.70;;;22.20;67.00;;;;;;5052562;28;20391;-47
2022/06/10 03:34:25;;;;;;;2.33;0.90;;;22.10;67.00;;;;;;5052476;28;20025;-47
2022/06/10 03:36:55;;;;;;;1.15;0.55;;;22.10;67.20;;;;;;5052450;28;20108;-47
2022/06/10 03:39:22;;;;;;;3.13;0.88;;;;;;;;;;5052443;28;20021;-47
2022/06/10 03:42:04;;;;;;;1.85;0.60;;;22.10;61.50;;;;;;5052439;28;20033;-47
2022/06/10 03:44:31;;;;;;;2.55;0.57;;;22.10;67.10;;;;;;5052400;28;20032;-46
2022/06/10 03:46:57;;;;;;;1.65;0.55;;;;;;;;;;5052450;28;20021;-47
2022/06/10 03:49:41;;;;;;;2.67;0.85;;;22.10;61.40;;;;;;5052327;28;20032;-47
2022/06/10 03:52:12;;;;;;;3.10;0.63;;;22.10;67.20;;;;;;5052298;28;20029;-48
2022/06/10 03:54:38;;;;;;;2.42;0.77;;;;;;;;;;5052168;28;20029;-47
2022/06/10 03:57:04;;;;;;;1.73;0.73;;;;;;;;;;5052216;28;20017;-47
2022/06/10 03:59:30;;;;;;;3.30;0.55;;;;;;;;;;5052110;28;20606;-47
2022/06/10 04:01:56;;;;;;;1.17;0.65;;;;;;;;;;5052422;28;20021;-47
2022/06/10 04:04:22;;;;;;;2.65;0.77;;;;;;;;;;5051945;28;20049;-47
2022/06/10 04:06:48;;;;;;;0.80;0.40;;;;;;;;;;5052071;28;20037;-46
2022/06/10 04:09:14;;;;;;;2.72;0.75;;;;;;;;;;5052089;28;20033;-48
2022/06/10 04:11:40;;;;;;;1.95;0.40;;;;;;;;;;5051997;28;20029;-47
2022/06/10 04:14:06;;;;;;;2.53;0.63;;;;;;;;;;5051925;28;20025;-47
2022/06/10 04:16:33;;;;;;;0.77;0.35;;;;;;;;;;5051927;28;20025;-47
2022/06/10 04:18:59;;;;;;;1.25;0.63;;;;;;;;;;5052337;28;20112;-47
2022/06/10 04:21:25;;;;;;;2.42;0.82;;;;;;;;;;5051980;28;20115;-47
2022/06/10 04:23:51;;;;;;;2.03;0.70;;;;;;;;;;5051946;28;20506;-47
2022/06/10 04:26:17;;;;;;;1.00;0.47;;;;;;;;;;5051842;28;20108;-47
2022/06/10 04:28:43;;;;;;;1.80;0.70;;;;;;;;;;5052763;28;20072;-47
2022/06/10 04:31:09;;;;;;;1.60;0.60;;;;;;;;;;5055918;28;20085;-48
2022/06/10 04:33:35;;;;;;;1.70;0.80;;;;;;;;;;5056111;28;20021;-47
2022/06/10 04:36:02;;;;;;;1.42;0.60;;;;;;;;;;5055805;28;20068;-47
2022/06/10 04:38:28;;;;;;;2.53;0.70;;;;;;;;;;5055810;28;20025;-48
2022/06/10 04:40:54;;;;;;;1.90;0.63;;;;;;;;;;5056027;28;20029;-47
2022/06/10 04:43:20;;;;;;;1.70;0.70;;;;;;;;;;5055682;28;20546;-47
2022/06/10 04:45:50;;;;;;;1.83;0.57;;;22.00;67.00;;;;;;5055593;28;20041;-47
2022/06/10 04:48:16;;;;;;;1.58;0.77;;;;;;;;;;5055550;28;20025;-47
2022/06/10 04:50:43;;;;;;;1.45;0.60;;;22.00;67.10;;;;;;5055759;28;20387;-47
2022/06/10 04:53:09;;;;;;;2.85;0.77;;;;;;;;;;5055523;28;20498;-47
2022/06/10 04:55:35;;;;;;;2.10;0.55;;;;;;;;;;5055278;28;20044;-46
2022/06/10 04:58:01;;;;;;;1.73;0.73;;;;;;;;;;5055439;28;20401;-47
2022/06/10 05:00:37;;;;;;;1.98;0.70;;;22.00;61.60;;;;;;5055326;28;20436;-46
2022/06/10 05:03:03;;;;;;;1.83;0.68;;;;;;;;;;5055000;28;20511;-47
2022/06/10 05:05:30;;;;;;;2.58;0.95;;;22.00;67.30;;;;;;5037359;28;20079;-47
2022/06/10 05:07:56;;;;;;;4.00;0.70;;;;;;;;;;5055230;28;20052;-47
2022/06/10 05:10:22;;;;;;;1.25;0.60;;;;;;;;;;5055174;28;20037;-46
2022/06/10 05:12:50;;;;;;;1.73;0.70;;;;;;;;;;5055137;28;20025;-47
2022/06/10 05:15:20;;;;;;;2.20;0.70;;;21.90;67.30;;;;;;5055262;28;20491;-48
2022/06/10 05:17:46;;;;;;;2.53;0.80;;;;;;;;;;5055285;28;20044;-47
2022/06/10 05:20:16;;;;;;;2.60;0.70;;;22.00;67.60;;;;;;5054738;28;20140;-47
2022/06/10 05:22:42;;;;;;;;;;;22.20;69.10;;;;;;5055046;28;20059;-47
2022/06/10 05:25:08;;;;;;;4.88;0.98;;;;;;;;;;5054652;28;20312;-46
2022/06/10 05:27:34;;;;;;;2.60;0.70;;;;;;;;;;5054573;28;20571;-47
2022/06/10 05:30:00;;;;;;;1.65;0.60;;;;;;;;;;5054511;28;20056;-47
2022/06/10 05:32:26;;;;;;;1.90;0.70;;;;;;;;;;5054558;28;20369;-47
2022/06/10 05:34:53;;;;;;;2.30;0.73;;;;;;;;;;5054432;28;20497;-47
2022/06/10 05:37:22;;;;;;;2.97;0.85;;;22.10;67.60;;;;;;5054494;28;20025;-48
2022/06/10 05:39:48;;;;;;;3.30;0.90;;;;;;;;;;5053977;28;20032;-48
2022/06/10 05:42:14;;;;;;;3.20;0.70;;;;;;;;;;5054694;28;20132;-48
2022/06/10 05:44:43;;;;;;;2.40;0.90;;;22.10;67.60;;;;;;5054414;28;20083;-47
2022/06/10 05:47:16;;;;;;;4.88;1.02;;;22.10;67.80;;;;;;5054462;28;20413;-47
2022/06/10 05:49:44;;;;;;;1.25;0.55;;;22.10;67.90;;;;;;5054417;28;20407;-47
2022/06/10 05:52:12;;;;;;;4.57;0.90;;;22.00;67.80;;;;;;5054432;28;20043;-48
2022/06/10 05:54:41;;;;;;;2.97;0.88;;;22.10;68.30;;;;;;5054265;28;20029;-48
2022/06/10 05:57:08;;;;;;;2.78;1.00;;;22.10;66.90;;;;;;5054235;28;20025;-47
2022/06/10 05:59:34;;;;;;;5.95;1.33;;;;;;;;;;5054187;28;20422;-47
2022/06/10 06:02:11;;;;;;;2.67;0.80;;;22.60;69.00;;;;;;5054062;28;20038;-47
2022/06/10 06:04:37;;;;;;;2.42;0.90;;;;;;;;;;5054191;28;20041;-47
2022/06/10 06:07:03;;;;;;;2.72;0.80;;;;;;;;;;5053964;28;20104;-48
2022/06/10 06:09:29;;;;;;;1.75;0.77;;;;;;;;;;5054124;28;20104;-48
2022/06/10 06:11:57;;;;;;;5.18;0.95;;;;;;;;;;5054290;28;20435;-48
2022/06/10 06:14:27;;;;;;;3.85;0.85;;;22.00;68.30;;;;;;5053769;28;20036;-49
2022/06/10 06:16:55;;;;;;;4.68;1.13;;;22.00;69.00;;;;;;5053899;28;20380;-48
2022/06/10 06:19:22;;;;;;;4.30;0.80;;;22.00;68.40;;;;;;5054039;28;20391;-48
2022/06/10 06:21:48;;;;;;;2.38;0.80;;;;;;;;;;5053821;28;20487;-48
2022/06/10 06:24:15;;;;;;;2.42;0.63;;;;;;;;;;5053671;28;20456;-48
2022/06/10 06:26:41;;;;;;;1.65;0.75;;;;;;;;;;5053700;28;20090;-47
2022/06/10 06:29:06;;;;;;;6.10;1.60;;;;;;;;;;5053682;28;20025;-48
2022/06/10 06:31:33;;;;;;;2.00;0.80;;;;;;;;;;5053895;28;20479;-48
2022/06/10 06:33:59;;;;;;;2.63;0.98;;;;;;;;;;5053613;28;20021;-48
2022/06/10 06:36:27;;;;;;;2.80;0.95;;;22.10;68.30;;;;;;5053283;28;20369;-47
2022/06/10 06:38:53;;;;;;;4.88;1.17;;;;;;;;;;5053348;28;20096;-48
2022/06/10 06:41:19;;;;;;;4.43;0.95;;;;;;;;;;5053328;28;20135;-47
2022/06/10 06:43:45;;;;;;;2.05;0.80;;;;;;;;;;5053370;28;20025;-48
2022/06/10 06:46:16;;;;;;;2.63;1.02;;;22.00;68.80;;;;;;5053297;28;20565;-48
2022/06/10 06:48:43;;;;;;;2.10;0.80;;;22.10;67.70;;;;;;5053580;28;20164;-47
2022/06/10 06:51:09;;;;;;;3.80;1.13;;;;;;;;;;5052361;28;20505;-48
2022/06/10 06:53:36;;;;;;;2.05;0.90;;;;;;;;;;5052985;28;20059;-48
2022/06/10 06:56:06;;;;;;;4.55;1.20;;;22.10;68.60;;;;;;5052850;28;20507;-48
2022/06/10 06:58:32;;;;;;;1.35;0.70;;;;;;;;;;5052973;28;20029;-48
2022/06/10 07:00:58;;;;;;;1.20;0.70;;;;;;;;;;5052882;28;20059;-47
2022/06/10 07:03:25;;;;;;;2.25;0.98;;;;;;;;;;5052606;28;20466;-47
2022/06/10 07:05:52;;;;;;;2.70;1.08;;;22.30;65.30;;;;;;5052867;28;20428;-46
2022/06/10 07:08:18;;;;;;;2.70;1.02;;;;;;;;;;5052702;28;20037;-47
2022/06/10 07:10:44;;;;;;;3.92;1.02;;;;;;;;;;5053141;28;20423;-46
2022/06/10 07:13:12;;;;;;;2.60;0.75;;;22.10;66.70;;;;;;5052704;28;20511;-46
2022/06/10 07:15:39;;;;;;;3.97;1.00;;;;;;;;;;5052669;28;20242;-47
2022/06/10 07:18:05;;;;;;;2.78;0.88;;;;;;;;;;5052670;28;20044;-46
2022/06/10 07:20:33;;;;;;;3.33;1.10;;;22.10;69.00;;;;;;5052721;28;20037;-46
2022/06/10 07:22:59;;;;;;;3.65;0.90;;;;;;;;;;5052673;28;20029;-46
2022/06/10 07:25:26;;;;;;;2.97;0.98;;;;;;;;;;5034639;28;20025;-46
2022/06/10 07:27:55;;;;;;;4.85;1.27;;;;;;;;;;5052540;28;20025;-47
2022/06/10 07:30:24;;;;;;;2.72;1.33;;;22.20;68.80;;;;;;5052619;28;20111;-46
2022/06/10 07:32:50;;;;;;;2.53;0.90;;;;;;;;;;5052221;28;20055;-47
2022/06/10 07:35:18;;;;;;;5.03;1.35;;;;;;;;;;5052190;28;20488;-48
2022/06/10 07:37:45;;;;;;;3.13;1.45;;;22.30;65.60;;;;;;5052483;28;20083;-47
2022/06/10 07:43:02;;;;;;;8.70;1.75;;;;;;;;;;5052608;28;20501;-46
2022/06/10 07:45:28;;;;;;;2.33;1.05;;;;;;;;;;5052278;28;20123;-47
2022/06/10 07:47:54;;;;;;;2.95;0.93;;;;;;;;;;5052165;28;20024;-47
2022/06/10 07:50:23;;;;;;;2.35;1.10;;;;;;;;;;5052141;28;20548;-47
2022/06/10 07:52:49;;;;;;;3.65;1.33;;;;;;;;;;5052488;28;20036;-48
2022/06/10 07:55:15;;;;;;;3.67;1.40;;;;;;;;;;5052075;28;20111;-47
2022/06/10 07:57:41;;;;;;;3.53;1.20;;;;;;;;;;5052055;28;20021;-47
2022/06/10 08:00:10;;;;;;;2.60;1.10;;;;;;;;;;5052055;28;20112;-46
2022/06/10 08:02:36;;;;;;;4.05;1.15;;;;;;;;;;5051521;28;20041;-46
2022/06/10 08:05:03;;;;;;;3.10;1.20;;;;;;;;;;5052213;28;20090;-46
2022/06/10 08:07:29;;;;;;;4.18;1.25;;;;;;;;;;5052018;28;20033;-46
2022/06/10 08:09:55;;;;;;;2.90;1.40;;;;;;;;;;5052128;28;20143;-46
2022/06/10 08:12:21;;;;;;;3.90;1.48;;;;;;;;;;5051973;28;20029;-46
2022/06/10 08:14:47;;;;;;;4.68;1.25;;;;;;;;;;5052164;28;20454;-47
2022/06/10 08:17:13;;;;;;;4.65;1.58;;;;;;;;;;5051954;28;20029;-47
2022/06/10 08:19:40;;;;;;;3.55;1.48;;;;;;;;;;5051976;28;20047;-47
2022/06/10 08:24:51;;;;;;;2.97;1.23;;;;;;;;;;5052012;28;20518;-47
2022/06/10 08:27:17;;;;;;;3.05;1.17;;;22.20;66.30;;;;;;5051814;28;20074;-48
2022/06/10 08:29:44;;;;;;;6.07;1.35;;;;;;;;;;5051704;28;20025;-46
2022/06/10 08:32:10;;;;;;;5.43;1.55;;;;;;;;;;5051952;28;20017;-47
2022/06/10 08:34:36;;;;;;;1.85;1.25;;;;;;;;;;5051567;28;20064;-48
2022/06/10 08:37:02;;;;;;;2.95;1.45;;;;;;;;;;5052062;28;20025;-47
2022/06/10 08:39:29;;;;;;;3.17;1.50;;;;;;;;;;5051855;28;20472;-47
2022/06/10 08:42:18;;;;;;;4.10;1.50;;;22.30;62.20;;;;;;5051981;28;20079;-46
2022/06/10 08:44:51;;;;;;;2.85;1.38;;;22.30;62.60;;;;;;5051719;28;20033;-46
2022/06/10 08:47:33;;;;;;;4.55;1.50;;;22.30;62.70;;;;;;5051956;28;20021;-46
2022/06/10 08:50:25;;;;;;;3.08;1.30;;;22.30;62.70;;;;;;5051950;28;20029;-47
2022/06/10 08:53:20;;;;;;;5.38;1.45;;;22.40;63.00;;;;;;5051590;28;20383;-47
2022/06/10 08:56:00;;;;;;;4.05;1.30;;;22.40;62.90;;;;;;5051568;28;20037;-49
2022/06/10 08:58:55;;;;;;;4.25;0.95;;;22.40;68.70;;;;;;5051906;28;20422;-47
2022/06/10 09:01:23;;;;;;;3.53;1.40;;;22.50;68.60;;;;;;5051237;28;20029;-47
2022/06/10 09:04:27;;;;;;;3.75;1.40;;;22.50;62.90;;;;;;5051402;28;20048;-46
2022/06/10 09:06:56;;;;;;;2.88;0.98;;;22.50;68.50;;;;;;5051745;28;20159;-47
2022/06/10 09:09:28;;;;;;;2.78;1.45;;;22.60;68.80;;;;;;5051446;28;20383;-47
2022/06/10 09:12:18;;;;;;;3.75;1.67;;;22.60;68.70;;;;;;5051485;28;20444;-46
2022/06/10 09:14:44;;;;;;;4.43;1.48;;;;;;;;;;5052283;28;20041;-45
2022/06/10 09:17:23;;;;;;;3.00;1.20;;;22.60;62.60;;;;;;5055148;28;20029;-48
2022/06/10 09:19:58;;;;;;;4.63;1.33;;;22.60;62.70;;;;;;5055012;28;20051;-47
2022/06/10 09:22:47;;;;;;;2.88;1.17;;;22.80;62.80;;;;;;5054962;28;20070;-46
2022/06/10 09:25:41;;;;;;;4.10;1.20;;;22.80;68.60;;;;;;5055221;28;20086;-47
2022/06/10 09:28:07;;;;;;;2.28;1.20;;;22.80;65.40;;;;;;5054913;28;20049;-46
2022/06/10 09:30:45;;;;;;;2.50;1.15;;;22.80;62.60;;;;;;5054794;28;20104;-46
2022/06/10 09:33:30;;;;;;;5.15;1.40;;;22.90;62.60;;;;;;5054784;28;20027;-46
2022/06/10 09:36:39;;;;;;;3.00;1.27;;;22.90;62.50;;;;;;5054453;28;20119;-47
2022/06/10 09:40:35;;;;;;;3.03;1.10;;;22.90;68.00;;;;;;5054413;28;20060;-46
2022/06/10 09:42:27;;;;;;;3.20;1.25;;;23.00;61.80;;;;;;5054291;28;20044;-47
2022/06/10 09:45:14;;;;;;;4.00;1.33;;;23.00;61.50;;;;;;5054313;28;20025;-47
2022/06/10 09:47:40;;;;;;;2.75;1.02;;;;;;;;;;5054464;28;20033;-48
2022/06/10 09:50:35;;;;;;;7.65;1.73;;;23.00;61.50;;;;;;5054298;28;20104;-47
2022/06/10 09:53:26;;;;;;;4.85;1.40;;;23.10;61.30;;;;;;5053633;28;20079;-46
2022/06/10 09:56:50;;;;;;;2.55;1.20;;;23.00;61.30;;;;;;5054214;28;20036;-46
2022/06/10 09:59:16;;;;;;;1.95;1.13;;;;;;;;;;4973171;28;20045;-46
2022/06/10 10:02:08;;;;;;;1.85;1.10;;;23.10;61.10;;;;;;5050763;28;20029;-46
2022/06/10 10:04:51;;;;;;;3.17;1.17;;;23.10;60.70;;;;;;5053776;28;20428;-46
2022/06/10 10:07:37;;;;;;;3.85;1.13;;;23.20;60.50;;;;;;5054152;28;20091;-46
2022/06/10 10:10:03;;;;;;;2.10;1.00;;;;;;;;;;5053846;28;20036;-45
2022/06/10 10:12:53;;;;;;;2.35;1.17;;;23.10;60.20;;;;;;5053809;28;20038;-46
2022/06/10 10:15:49;;;;;;;3.60;1.50;;;23.20;65.80;;;;;;5053761;28;20036;-46
2022/06/10 10:18:34;;;;;;;3.45;1.27;;;23.20;60.10;;;;;;5054067;28;20028;-46
2022/06/10 10:21:09;;;;;;;3.60;0.98;;;23.10;65.50;;;;;;5053857;28;20116;-46
2022/06/10 10:23:49;;;;;;;3.22;1.15;;;23.20;65.50;;;;;;5053589;28;20391;-45
2022/06/10 10:26:21;;;;;;;3.97;1.42;;;23.10;59.90;;;;;;5053177;28;20492;-45
2022/06/10 10:28:53;;;;;;;1.60;0.93;;;23.20;65.70;;;;;;5053211;28;20025;-46
2022/06/10 10:31:23;;;;;;;3.58;1.25;;;23.30;60.10;;;;;;5053087;28;20029;-46
2022/06/10 10:33:49;;;;;;;3.63;1.20;;;;;;;;;;5053257;28;20029;-47
2022/06/10 10:36:32;;;;;;;3.72;1.60;;;23.10;60.00;;;;;;5052907;28;20329;-47
2022/06/10 10:39:11;;;;;;;2.85;1.10;;;23.20;65.70;;;;;;5053165;28;20074;-47
2022/06/10 10:41:44;;;;;;;5.22;1.20;;;23.20;60.00;;;;;;5053271;28;20041;-46
2022/06/10 10:44:49;;;;;;;3.10;1.13;;;23.20;60.00;;;;;;5053262;28;20029;-46
2022/06/10 10:47:22;;;;;;;3.38;1.30;;;23.20;65.60;;;;;;5041002;28;20487;-47
2022/06/10 10:49:56;;;;;;;3.97;1.23;;;23.20;65.50;;;;;;5053295;28;20067;-46
2022/06/10 10:52:34;;;;;;;2.95;1.33;;;23.20;59.70;;;;;;5053503;28;20029;-48
2022/06/10 10:55:25;;;;;;;3.33;1.17;;;23.20;65.60;;;;;;5053028;28;20029;-50
2022/06/10 10:58:06;;;;;;;3.28;1.08;;;23.20;66.00;;;;;;5053420;28;20017;-49
2022/06/10 11:00:42;;;;;;;1.00;0.90;;;23.20;65.90;;;;;;5052954;28;20029;-46
2022/06/10 11:03:25;;;;;;;5.82;1.20;;;23.40;60.10;;;;;;5052869;28;20048;-50
2022/06/10 11:05:52;;;;;;;3.97;1.08;;;;;;;;;;5053164;28;20029;-49
2022/06/10 11:08:29;;;;;;;4.63;1.30;;;23.30;60.00;;;;;;5053130;28;20064;-48
2022/06/10 11:11:05;;;;;;;1.88;0.98;;;23.40;60.00;;;;;;5052717;28;20033;-48
2022/06/10 11:13:44;;;;;;;3.22;1.15;;;23.30;60.00;;;;;;5053032;28;20025;-48
2022/06/10 11:16:18;;;;;;;3.92;1.00;;;23.30;59.90;;;;;;5052682;28;20068;-50
2022/06/10 11:18:49;;;;;;;3.30;0.98;;;23.30;65.60;;;;;;5052828;28;20400;-49
2022/06/10 11:21:15;;;;;;;2.28;1.00;;;;;;;;;;5052685;28;20025;-49
2022/06/10 11:23:53;;;;;;;3.88;1.50;;;23.60;60.20;;;;;;5052718;28;20103;-48
2022/06/10 11:26:21;;;;;;;2.80;1.10;;;23.40;65.90;;;;;;5052622;28;20029;-50
2022/06/10 11:28:49;;;;;;;3.25;1.10;;;23.40;63.20;;;;;;5052658;28;20104;-47
2022/06/10 11:31:18;;;;;;;2.95;1.10;;;23.40;60.10;;;;;;5052803;28;20029;-48
2022/06/10 11:33:47;;;;;;;2.40;0.93;;;23.40;65.80;;;;;;5052596;28;20033;-47
2022/06/10 11:36:21;;;;;;;4.70;1.02;;;23.40;66.20;;;;;;5052360;28;20041;-49
2022/06/10 11:38:53;;;;;;;2.40;0.95;;;23.40;66.00;;;;;;5052050;28;20037;-47
2022/06/10 11:41:29;;;;;;;4.60;1.10;;;23.50;60.10;;;;;;5052675;28;20047;-48
2022/06/10 11:43:59;;;;;;;2.63;1.38;;;23.50;65.90;;;;;;5052379;28;20108;-50
2022/06/10 11:46:30;;;;;;;3.05;0.88;;;23.60;66.10;;;;;;5052236;28;20108;-50
2022/06/10 11:49:11;;;;;;;3.47;0.98;;;23.50;60.20;;;;;;5052680;28;20021;-50
2022/06/10 11:51:47;;;;;;;1.63;1.00;;;23.60;60.10;;;;;;5052263;28;20096;-49
2022/06/10 11:54:34;;;;;;;6.38;1.23;;;23.60;60.20;;;;;;5052216;28;20423;-48
2022/06/10 12:00:27;;;;;;;2.17;0.90;;;23.50;60.20;;;;;;5052493;28;20039;-48
2022/06/10 12:03:11;;;;;;;1.85;0.88;;;23.50;60.20;;;;;;5051780;28;20064;-48
2022/06/10 12:05:43;;;;;;;3.25;1.40;;;23.60;60.30;;;;;;5052211;28;20464;-48
2022/06/10 12:08:20;;;;;;;2.75;0.90;;;23.60;60.20;;;;;;5051904;28;20108;-48
2022/06/10 12:10:59;;;;;;;1.73;1.00;;;23.60;60.50;;;;;;5051947;28;20155;-48
2022/06/10 12:13:25;;;;;;;4.25;1.42;;;23.60;63.90;;;;;;5051849;28;20043;-49
2022/06/10 12:15:55;;;;;;;2.80;1.08;;;23.70;66.00;;;;;;5051689;28;20059;-48
2022/06/10 12:18:23;;;;;;;1.67;0.93;;;23.60;66.00;;;;;;5051801;28;20017;-48
2022/06/10 12:21:02;;;;;;;2.35;1.42;;;23.70;60.20;;;;;;5051839;28;20039;-48
2022/06/10 12:23:34;;;;;;;2.47;1.05;;;23.70;66.20;;;;;;5051945;28;20025;-49
2022/06/10 12:26:29;;;;;;;5.05;1.20;;;23.70;60.20;;;;;;5051982;28;20025;-49
2022/06/10 12:29:35;;;;;;;2.17;0.90;;;23.70;66.20;;;;;;5051758;28;20029;-49
2022/06/10 12:32:00;;;;;;;3.33;1.10;;;;;;;;;;5051769;28;20026;-48
2022/06/10 12:34:49;;;;;;;1.55;0.95;;;23.70;60.40;;;;;;5051312;28;20376;-47
2022/06/10 12:37:38;;;;;;;1.55;1.00;;;23.70;60.60;;;;;;5051553;28;20094;-48
2022/06/10 12:40:04;;;;;;;2.47;1.00;;;;;;;;;;5051838;28;20024;-48
2022/06/10 12:42:42;;;;;;;4.75;1.20;;;23.70;60.80;;;;;;5051562;28;20029;-48
2022/06/10 12:45:19;;;;;;;4.45;0.90;;;23.90;60.90;;;;;;5051831;28;20419;-51
2022/06/10 12:47:46;;;;;;;3.08;1.10;;;23.80;65.50;;;;;;5051556;28;20029;-49
2022/06/10 12:50:27;;;;;;;2.22;0.80;;;24.00;60.60;;;;;;5053226;28;20036;-49
2022/06/10 12:53:06;;;;;;;4.97;0.88;;;24.00;60.60;;;;;;5055800;28;20036;-50
2022/06/10 12:55:46;;;;;;;4.68;0.98;;;24.10;60.90;;;;;;5055435;28;20116;-50
2022/06/10 12:58:37;;;;;;;2.78;0.93;;;24.20;60.80;;;;;;5055506;28;20029;-48
2022/06/10 13:01:20;;;;;;;2.03;0.80;;;24.20;60.90;;;;;;5037511;28;20037;-46
2022/06/10 13:04:00;;;;;;;2.90;0.90;;;24.20;60.70;;;;;;5055003;28;20049;-47
2022/06/10 13:06:56;;;;;;;2.70;1.10;;;24.30;61.00;;;;;;5055426;28;20333;-48
2022/06/10 13:09:37;;;;;;;2.83;1.20;;;24.40;60.40;;;;;;5055112;28;20037;-47
2022/06/10 13:12:09;;;;;;;2.15;0.90;;;24.30;60.40;;;;;;5055400;28;20452;-47
2022/06/10 13:14:38;;;;;;;3.00;1.30;;;24.40;66.00;;;;;;5054952;28;20507;-47
2022/06/10 13:17:21;;;;;;;3.67;0.88;;;24.50;60.00;;;;;;5055024;28;20020;-48
2022/06/10 13:19:58;;;;;;;3.70;1.08;;;24.50;60.10;;;;;;5054985;28;20025;-47
2022/06/10 13:22:39;;;;;;;2.10;1.13;;;24.50;59.90;;;;;;5054887;28;20111;-47
2022/06/10 13:25:07;;;;;;;3.25;1.00;;;24.50;59.80;;;;;;5054952;28;20032;-47
2022/06/10 13:27:43;;;;;;;2.55;0.95;;;24.60;65.80;;;;;;5054899;28;20025;-47
2022/06/10 13:30:14;;;;;;;2.28;1.08;;;24.60;59.70;;;;;;5055119;28;20021;-46
2022/06/10 13:33:09;;;;;;;1.83;0.93;;;24.60;59.80;;;;;;5054841;28;20337;-47
2022/06/10 13:35:50;;;;;;;5.43;1.10;;;24.70;59.80;;;;;;5047391;28;20454;-48
2022/06/10 13:38:27;;;;;;;3.72;1.20;;;24.60;59.70;;;;;;5054716;28;20021;-47
2022/06/10 13:43:47;;;;;;;1.65;0.60;;;24.70;65.90;;;;;;5054920;28;20040;-47
2022/06/10 13:46:33;;;;;;;3.13;1.10;;;24.70;59.80;;;;;;5054472;28;20033;-47
2022/06/10 13:49:42;;;;;;;3.20;1.23;;;24.70;59.80;;;;;;5054730;28;20028;-48
2022/06/10 13:52:35;;;;;;;4.30;1.40;;;24.70;59.80;;;;;;5054209;28;20442;-47
2022/06/10 13:55:27;;;;;;;1.90;1.00;;;24.70;59.80;;;;;;5037628;28;20056;-47
2022/06/10 13:58:07;;;;;;;3.25;1.15;;;24.90;65.00;;;;;;5054179;28;20491;-48
2022/06/10 14:00:58;;;;;;;1.52;1.10;;;24.80;65.30;;;;;;5054099;28;20383;-49
2022/06/10 14:03:24;;;;;;;2.45;1.08;;;;;;;;;;5054000;28;20048;-47
2022/06/10 14:06:02;;;;;;;3.60;1.00;;;24.80;59.50;;;;;;5054151;28;20020;-48
2022/06/10 14:08:37;;;;;;;3.47;1.10;;;24.80;65.00;;;;;;5054144;28;20025;-48
2022/06/10 14:11:11;;;;;;;2.22;0.90;;;24.70;65.00;;;;;;5054143;28;20175;-47
2022/06/10 14:13:37;;;;;;;2.95;1.20;;;;;;;;;;5054038;28;20029;-48
2022/06/10 14:16:04;;;;;;;3.92;1.27;;;;;;;;;;5053757;28;20041;-46